sensor_id;sensor_type;location;lat;lon;timestamp;temperature;humidity
23079;DHT22;11707;50.830;4.364;2022-09-13T00:00:42;21.30;99.90
23079;DHT22;11707;50.830;4.364;2022-09-13T00:03:10;21.40;99.90
23079;DHT22;11707;50.830;4.364;2022-09-13T00:05:37;21.60;99.90
23079;DHT22;11707;50.830;4.364;2022-09-13T00:08:03;21.70;99.90
23079;DHT22;11707;50.830;4.364;2022-09-13T00:10:30;21.70;99.90
23079;DHT22;11707;50.830;4.364;2022-09-13T00:12:57;21.70;99.90
23079;DHT22;11707;50.830;4.364;2022-09-13T00:15:22;21.70;99.90
23079;DHT22;11707;50.830;4.364;2022-09-13T00:17:48;21.60;99.90
23079;DHT22;11707;50.830;4.364;2022-09-13T00:20:14;21.40;99.90
23079;DHT22;11707;50.830;4.364;2022-09-13T00:22:39;21.40;99.90
23079;DHT22;11707;50.830;4.364;2022-09-13T00:25:06;21.50;99.90
23079;DHT22;11707;50.830;4.364;2022-09-13T00:27:33;21.50;99.90
23079;DHT22;11707;50.830;4.364;2022-09-13T00:29:59;21.50;99.90
23079;DHT22;11707;50.830;4.364;2022-09-13T00:32:25;21.40;99.90
23079;DHT22;11707;50.830;4.364;2022-09-13T00:34:51;21.30;99.90
23079;DHT22;11707;50.830;4.364;2022-09-13T00:37:16;21.40;99.90
23079;DHT22;11707;50.830;4.364;2022-09-13T00:39:42;21.40;99.90
23079;DHT22;11707;50.830;4.364;2022-09-13T00:42:12;21.20;99.90
23079;DHT22;11707;50.830;4.364;2022-09-13T00:45:01;20.90;99.90
23079;DHT22;11707;50.830;4.364;2022-09-13T00:53:11;21.10;99.90
23079;DHT22;11707;50.830;4.364;2022-09-13T00:56:05;21.00;99.90
23079;DHT22;11707;50.830;4.364;2022-09-13T00:58:38;21.10;99.90
23079;DHT22;11707;50.830;4.364;2022-09-13T01:01:09;21.00;99.90
23079;DHT22;11707;50.830;4.364;2022-09-13T01:03:36;21.20;99.90
23079;DHT22;11707;50.830;4.364;2022-09-13T01:06:12;21.10;99.90
23079;DHT22;11707;50.830;4.364;2022-09-13T01:08:41;21.10;99.90
23079;DHT22;11707;50.830;4.364;2022-09-13T01:11:19;21.30;99.90
23079;DHT22;11707;50.830;4.364;2022-09-13T01:13:49;21.30;99.90
23079;DHT22;11707;50.830;4.364;2022-09-13T01:16:15;21.30;99.90
23079;DHT22;11707;50.830;4.364;2022-09-13T01:18:42;21.30;99.90
23079;DHT22;11707;50.830;4.364;2022-09-13T01:27:18;21.10;99.90
23079;DHT22;11707;50.830;4.364;2022-09-13T01:30:07;21.30;99.90
23079;DHT22;11707;50.830;4.364;2022-09-13T01:50:01;21.60;99.90
23079;DHT22;11707;50.830;4.364;2022-09-13T01:52:17;21.30;99.90
23079;DHT22;11707;50.830;4.364;2022-09-13T01:55:05;21.20;99.90
23079;DHT22;11707;50.830;4.364;2022-09-13T01:57:35;21.10;99.90
23079;DHT22;11707;50.830;4.364;2022-09-13T02:05:08;21.40;99.90
23079;DHT22;11707;50.830;4.364;2022-09-13T02:07:39;21.20;99.90
23079;DHT22;11707;50.830;4.364;2022-09-13T02:10:30;21.30;99.90
23079;DHT22;11707;50.830;4.364;2022-09-13T02:12:55;21.40;99.90
23079;DHT22;11707;50.830;4.364;2022-09-13T02:15:25;21.10;99.90
23079;DHT22;11707;50.830;4.364;2022-09-13T02:18:18;21.10;99.90
23079;DHT22;11707;50.830;4.364;2022-09-13T02:20:48;21.20;99.90
23079;DHT22;11707;50.830;4.364;2022-09-13T02:23:28;21.30;99.90
23079;DHT22;11707;50.830;4.364;2022-09-13T02:25:56;21.40;99.90
23079;DHT22;11707;50.830;4.364;2022-09-13T02:28:31;21.30;99.90
23079;DHT22;11707;50.830;4.364;2022-09-13T02:30:58;21.30;99.90
23079;DHT22;11707;50.830;4.364;2022-09-13T02:33:30;21.50;99.90
23079;DHT22;11707;50.830;4.364;2022-09-13T02:36:09;21.50;99.90
23079;DHT22;11707;50.830;4.364;2022-09-13T02:38:45;21.40;99.90
23079;DHT22;11707;50.830;4.364;2022-09-13T02:44:22;21.20;99.90
23079;DHT22;11707;50.830;4.364;2022-09-13T02:47:03;21.20;99.90
23079;DHT22;11707;50.830;4.364;2022-09-13T02:49:47;21.00;99.90
23079;DHT22;11707;50.830;4.364;2022-09-13T02:52:35;21.10;99.90
23079;DHT22;11707;50.830;4.364;2022-09-13T02:55:24;20.90;99.90
23079;DHT22;11707;50.830;4.364;2022-09-13T03:00:22;20.80;99.90
23079;DHT22;11707;50.830;4.364;2022-09-13T03:02:48;20.80;99.90
23079;DHT22;11707;50.830;4.364;2022-09-13T03:05:16;20.60;99.90
23079;DHT22;11707;50.830;4.364;2022-09-13T03:07:42;20.60;99.90
23079;DHT22;11707;50.830;4.364;2022-09-13T03:10:12;20.60;99.90
23079;DHT22;11707;50.830;4.364;2022-09-13T03:18:30;20.60;99.90
23079;DHT22;11707;50.830;4.364;2022-09-13T03:29:26;20.50;99.90
23079;DHT22;11707;50.830;4.364;2022-09-13T03:37:31;20.20;99.90
23079;DHT22;11707;50.830;4.364;2022-09-13T03:40:09;20.40;99.90
23079;DHT22;11707;50.830;4.364;2022-09-13T03:43:05;20.50;99.90
23079;DHT22;11707;50.830;4.364;2022-09-13T03:45:31;20.50;99.90
23079;DHT22;11707;50.830;4.364;2022-09-13T03:48:01;20.50;99.90
23079;DHT22;11707;50.830;4.364;2022-09-13T03:50:29;20.60;99.90
23079;DHT22;11707;50.830;4.364;2022-09-13T03:53:00;20.70;99.90
23079;DHT22;11707;50.830;4.364;2022-09-13T03:55:28;20.60;99.90
23079;DHT22;11707;50.830;4.364;2022-09-13T03:57:55;20.80;99.90
23079;DHT22;11707;50.830;4.364;2022-09-13T04:00:21;20.70;99.90
23079;DHT22;11707;50.830;4.364;2022-09-13T04:02:47;20.70;99.90
23079;DHT22;11707;50.830;4.364;2022-09-13T04:05:13;20.80;99.90
23079;DHT22;11707;50.830;4.364;2022-09-13T04:07:38;20.70;99.90
23079;DHT22;11707;50.830;4.364;2022-09-13T04:10:04;20.70;99.90
23079;DHT22;11707;50.830;4.364;2022-09-13T04:12:31;20.80;99.90
23079;DHT22;11707;50.830;4.364;2022-09-13T04:14:57;20.90;99.90
23079;DHT22;11707;50.830;4.364;2022-09-13T04:17:22;20.90;99.90
23079;DHT22;11707;50.830;4.364;2022-09-13T04:19:48;20.60;99.90
23079;DHT22;11707;50.830;4.364;2022-09-13T04:22:14;20.50;99.90
23079;DHT22;11707;50.830;4.364;2022-09-13T04:24:40;20.60;99.90
23079;DHT22;11707;50.830;4.364;2022-09-13T04:27:07;20.60;99.90
23079;DHT22;11707;50.830;4.364;2022-09-13T04:29:33;20.40;99.90
23079;DHT22;11707;50.830;4.364;2022-09-13T04:31:59;20.60;99.90
23079;DHT22;11707;50.830;4.364;2022-09-13T04:34:25;20.70;99.90
23079;DHT22;11707;50.830;4.364;2022-09-13T04:36:52;20.80;99.90
23079;DHT22;11707;50.830;4.364;2022-09-13T04:39:19;20.90;99.90
23079;DHT22;11707;50.830;4.364;2022-09-13T04:41:45;20.90;99.90
23079;DHT22;11707;50.830;4.364;2022-09-13T04:44:16;20.90;99.90
23079;DHT22;11707;50.830;4.364;2022-09-13T04:46:44;20.90;99.90
23079;DHT22;11707;50.830;4.364;2022-09-13T04:49:10;21.10;99.90
23079;DHT22;11707;50.830;4.364;2022-09-13T04:51:36;21.20;99.90
23079;DHT22;11707;50.830;4.364;2022-09-13T04:54:02;21.30;99.90
23079;DHT22;11707;50.830;4.364;2022-09-13T04:56:28;21.10;99.90
23079;DHT22;11707;50.830;4.364;2022-09-13T04:58:54;21.10;99.90
23079;DHT22;11707;50.830;4.364;2022-09-13T05:01:21;21.20;99.90
23079;DHT22;11707;50.830;4.364;2022-09-13T05:03:47;21.30;99.90
23079;DHT22;11707;50.830;4.364;2022-09-13T05:06:15;21.20;99.90
23079;DHT22;11707;50.830;4.364;2022-09-13T05:08:44;21.10;99.90
23079;DHT22;11707;50.830;4.364;2022-09-13T05:11:13;20.70;99.90
23079;DHT22;11707;50.830;4.364;2022-09-13T05:13:39;20.50;99.90
23079;DHT22;11707;50.830;4.364;2022-09-13T05:16:06;20.40;99.90
23079;DHT22;11707;50.830;4.364;2022-09-13T05:18:34;20.50;99.90
23079;DHT22;11707;50.830;4.364;2022-09-13T05:21:01;20.60;99.90
23079;DHT22;11707;50.830;4.364;2022-09-13T05:23:30;20.50;99.90
23079;DHT22;11707;50.830;4.364;2022-09-13T05:25:58;20.50;99.90
23079;DHT22;11707;50.830;4.364;2022-09-13T05:28:25;20.60;99.90
23079;DHT22;11707;50.830;4.364;2022-09-13T05:33:32;20.60;99.90
23079;DHT22;11707;50.830;4.364;2022-09-13T05:35:58;20.80;99.90
23079;DHT22;11707;50.830;4.364;2022-09-13T05:38:24;20.80;99.90
23079;DHT22;11707;50.830;4.364;2022-09-13T05:40:54;20.90;99.90
23079;DHT22;11707;50.830;4.364;2022-09-13T05:43:25;20.70;99.90
23079;DHT22;11707;50.830;4.364;2022-09-13T05:45:50;20.80;99.90
23079;DHT22;11707;50.830;4.364;2022-09-13T05:48:16;20.90;99.90
23079;DHT22;11707;50.830;4.364;2022-09-13T05:50:42;21.00;99.90
23079;DHT22;11707;50.830;4.364;2022-09-13T05:53:08;21.00;99.90
23079;DHT22;11707;50.830;4.364;2022-09-13T05:55:33;21.00;99.90
23079;DHT22;11707;50.830;4.364;2022-09-13T05:58:02;21.00;99.90
23079;DHT22;11707;50.830;4.364;2022-09-13T06:00:28;21.10;99.90
23079;DHT22;11707;50.830;4.364;2022-09-13T06:02:55;21.10;99.90
23079;DHT22;11707;50.830;4.364;2022-09-13T06:05:20;21.00;99.90
23079;DHT22;11707;50.830;4.364;2022-09-13T06:07:46;20.90;99.90
23079;DHT22;11707;50.830;4.364;2022-09-13T06:10:12;20.90;99.90
23079;DHT22;11707;50.830;4.364;2022-09-13T06:12:38;20.90;99.90
23079;DHT22;11707;50.830;4.364;2022-09-13T06:15:04;20.90;99.90
23079;DHT22;11707;50.830;4.364;2022-09-13T06:17:29;20.90;99.90
23079;DHT22;11707;50.830;4.364;2022-09-13T06:19:55;21.00;99.90
23079;DHT22;11707;50.830;4.364;2022-09-13T06:22:21;21.10;99.90
23079;DHT22;11707;50.830;4.364;2022-09-13T06:24:47;21.10;99.90
23079;DHT22;11707;50.830;4.364;2022-09-13T06:27:13;21.00;99.90
23079;DHT22;11707;50.830;4.364;2022-09-13T06:29:39;20.90;99.90
23079;DHT22;11707;50.830;4.364;2022-09-13T06:32:05;20.90;99.90
23079;DHT22;11707;50.830;4.364;2022-09-13T06:34:31;21.00;99.90
23079;DHT22;11707;50.830;4.364;2022-09-13T06:36:57;20.90;99.90
23079;DHT22;11707;50.830;4.364;2022-09-13T06:39:23;20.80;99.90
23079;DHT22;11707;50.830;4.364;2022-09-13T06:41:49;20.90;99.90
23079;DHT22;11707;50.830;4.364;2022-09-13T06:44:15;20.90;99.90
23079;DHT22;11707;50.830;4.364;2022-09-13T06:46:40;21.10;99.90
23079;DHT22;11707;50.830;4.364;2022-09-13T06:49:07;21.20;99.90
23079;DHT22;11707;50.830;4.364;2022-09-13T06:51:34;21.20;99.90
23079;DHT22;11707;50.830;4.364;2022-09-13T06:54:00;21.30;99.90
23079;DHT22;11707;50.830;4.364;2022-09-13T06:56:30;21.40;99.90
23079;DHT22;11707;50.830;4.364;2022-09-13T06:58:59;21.60;99.90
23079;DHT22;11707;50.830;4.364;2022-09-13T07:01:30;21.80;99.90
23079;DHT22;11707;50.830;4.364;2022-09-13T07:04:01;21.90;99.90
23079;DHT22;11707;50.830;4.364;2022-09-13T07:06:30;22.00;99.90
23079;DHT22;11707;50.830;4.364;2022-09-13T07:08:58;22.10;99.90
23079;DHT22;11707;50.830;4.364;2022-09-13T07:11:26;22.10;99.90
23079;DHT22;11707;50.830;4.364;2022-09-13T07:13:55;22.20;99.90
23079;DHT22;11707;50.830;4.364;2022-09-13T07:16:23;22.20;99.90
23079;DHT22;11707;50.830;4.364;2022-09-13T07:18:56;22.20;99.90
23079;DHT22;11707;50.830;4.364;2022-09-13T07:21:22;22.30;99.90
23079;DHT22;11707;50.830;4.364;2022-09-13T07:23:56;22.40;99.90
23079;DHT22;11707;50.830;4.364;2022-09-13T07:26:23;22.50;99.90
23079;DHT22;11707;50.830;4.364;2022-09-13T07:28:53;22.60;99.90
23079;DHT22;11707;50.830;4.364;2022-09-13T07:33:47;22.60;99.90
23079;DHT22;11707;50.830;4.364;2022-09-13T07:36:13;22.70;99.90
23079;DHT22;11707;50.830;4.364;2022-09-13T07:38:40;22.80;99.90
23079;DHT22;11707;50.830;4.364;2022-09-13T07:41:10;22.60;99.90
23079;DHT22;11707;50.830;4.364;2022-09-13T07:43:36;22.60;99.90
23079;DHT22;11707;50.830;4.364;2022-09-13T07:46:06;22.80;99.90
23079;DHT22;11707;50.830;4.364;2022-09-13T07:48:34;22.90;99.90
23079;DHT22;11707;50.830;4.364;2022-09-13T07:51:02;22.90;99.90
23079;DHT22;11707;50.830;4.364;2022-09-13T07:53:28;22.80;99.90
23079;DHT22;11707;50.830;4.364;2022-09-13T07:56:06;22.80;99.90
23079;DHT22;11707;50.830;4.364;2022-09-13T07:58:33;22.70;99.90
23079;DHT22;11707;50.830;4.364;2022-09-13T08:03:39;22.40;99.90
23079;DHT22;11707;50.830;4.364;2022-09-13T08:06:06;22.40;99.90
23079;DHT22;11707;50.830;4.364;2022-09-13T08:08:33;22.20;99.90
23079;DHT22;11707;50.830;4.364;2022-09-13T08:11:00;22.10;99.90
23079;DHT22;11707;50.830;4.364;2022-09-13T08:13:27;22.00;99.90
23079;DHT22;11707;50.830;4.364;2022-09-13T08:16:01;22.00;99.90
23079;DHT22;11707;50.830;4.364;2022-09-13T08:18:28;21.90;99.90
23079;DHT22;11707;50.830;4.364;2022-09-13T08:20:57;21.90;99.90
23079;DHT22;11707;50.830;4.364;2022-09-13T08:23:23;22.00;99.90
23079;DHT22;11707;50.830;4.364;2022-09-13T08:25:49;22.10;99.90
23079;DHT22;11707;50.830;4.364;2022-09-13T08:28:16;22.20;99.90
23079;DHT22;11707;50.830;4.364;2022-09-13T08:30:43;22.20;99.90
23079;DHT22;11707;50.830;4.364;2022-09-13T08:33:12;22.30;99.90
23079;DHT22;11707;50.830;4.364;2022-09-13T08:35:38;22.30;99.90
23079;DHT22;11707;50.830;4.364;2022-09-13T08:38:04;22.20;99.90
23079;DHT22;11707;50.830;4.364;2022-09-13T08:40:33;22.10;99.90
23079;DHT22;11707;50.830;4.364;2022-09-13T08:43:16;22.10;99.90
23079;DHT22;11707;50.830;4.364;2022-09-13T08:45:59;22.30;99.90
23079;DHT22;11707;50.830;4.364;2022-09-13T08:48:35;22.50;99.90
23079;DHT22;11707;50.830;4.364;2022-09-13T08:51:36;22.70;99.90
23079;DHT22;11707;50.830;4.364;2022-09-13T08:53:59;22.70;99.90
23079;DHT22;11707;50.830;4.364;2022-09-13T08:56:31;22.60;99.90
23079;DHT22;11707;50.830;4.364;2022-09-13T09:04:40;22.50;99.90
23079;DHT22;11707;50.830;4.364;2022-09-13T09:07:17;22.70;99.90
23079;DHT22;11707;50.830;4.364;2022-09-13T09:10:11;23.00;99.90
23079;DHT22;11707;50.830;4.364;2022-09-13T09:15:41;23.10;99.90
23079;DHT22;11707;50.830;4.364;2022-09-13T09:20:42;23.50;99.90
23079;DHT22;11707;50.830;4.364;2022-09-13T09:23:43;23.70;99.90
23079;DHT22;11707;50.830;4.364;2022-09-13T09:26:19;23.70;99.90
23079;DHT22;11707;50.830;4.364;2022-09-13T09:39:47;23.50;99.90
23079;DHT22;11707;50.830;4.364;2022-09-13T09:42:37;23.50;99.90
23079;DHT22;11707;50.830;4.364;2022-09-13T09:47:45;23.90;99.90
23079;DHT22;11707;50.830;4.364;2022-09-13T09:50:12;24.20;99.90
23079;DHT22;11707;50.830;4.364;2022-09-13T09:55:34;24.00;99.90
23079;DHT22;11707;50.830;4.364;2022-09-13T09:58:07;24.30;99.90
23079;DHT22;11707;50.830;4.364;2022-09-13T10:00:36;24.30;99.90
23079;DHT22;11707;50.830;4.364;2022-09-13T10:03:06;24.40;99.90
23079;DHT22;11707;50.830;4.364;2022-09-13T10:05:34;24.60;99.90
23079;DHT22;11707;50.830;4.364;2022-09-13T10:08:03;24.50;99.90
23079;DHT22;11707;50.830;4.364;2022-09-13T10:10:42;24.40;99.90
23079;DHT22;11707;50.830;4.364;2022-09-13T10:13:16;24.40;99.90
23079;DHT22;11707;50.830;4.364;2022-09-13T10:15:59;24.40;99.90
23079;DHT22;11707;50.830;4.364;2022-09-13T10:18:27;24.30;99.90
23079;DHT22;11707;50.830;4.364;2022-09-13T10:21:06;24.30;99.90
23079;DHT22;11707;50.830;4.364;2022-09-13T10:23:33;24.40;99.90
23079;DHT22;11707;50.830;4.364;2022-09-13T10:28:29;24.50;99.90
23079;DHT22;11707;50.830;4.364;2022-09-13T10:31:07;24.70;99.90
23079;DHT22;11707;50.830;4.364;2022-09-13T10:33:37;24.80;99.90
23079;DHT22;11707;50.830;4.364;2022-09-13T10:36:16;25.20;99.90
23079;DHT22;11707;50.830;4.364;2022-09-13T10:38:56;25.30;99.90
23079;DHT22;11707;50.830;4.364;2022-09-13T10:41:25;25.10;99.90
23079;DHT22;11707;50.830;4.364;2022-09-13T10:44:02;24.60;99.90
23079;DHT22;11707;50.830;4.364;2022-09-13T10:46:32;24.60;99.90
23079;DHT22;11707;50.830;4.364;2022-09-13T10:48:59;24.60;99.90
23079;DHT22;11707;50.830;4.364;2022-09-13T10:54:05;24.70;99.90
23079;DHT22;11707;50.830;4.364;2022-09-13T10:56:32;24.60;99.90
23079;DHT22;11707;50.830;4.364;2022-09-13T10:59:24;24.40;99.90
23079;DHT22;11707;50.830;4.364;2022-09-13T11:02:19;24.80;99.90
23079;DHT22;11707;50.830;4.364;2022-09-13T11:05:21;24.80;99.90
23079;DHT22;11707;50.830;4.364;2022-09-13T11:08:06;25.10;99.90
23079;DHT22;11707;50.830;4.364;2022-09-13T11:16:27;25.40;99.90
23079;DHT22;11707;50.830;4.364;2022-09-13T11:27:45;24.40;99.90
23079;DHT22;11707;50.830;4.364;2022-09-13T11:30:17;24.60;99.90
23079;DHT22;11707;50.830;4.364;2022-09-13T11:46:21;24.80;99.90
23079;DHT22;11707;50.830;4.364;2022-09-13T11:57:43;25.10;99.90
23079;DHT22;11707;50.830;4.364;2022-09-13T12:00:22;25.10;99.90
23079;DHT22;11707;50.830;4.364;2022-09-13T12:05:41;25.20;99.90
23079;DHT22;11707;50.830;4.364;2022-09-13T12:08:15;25.10;99.90
23079;DHT22;11707;50.830;4.364;2022-09-13T12:11:19;25.00;99.90
23079;DHT22;11707;50.830;4.364;2022-09-13T12:13:56;24.70;99.90
23079;DHT22;11707;50.830;4.364;2022-09-13T12:16:32;24.90;99.90
23079;DHT22;11707;50.830;4.364;2022-09-13T12:19:01;24.80;99.90
23079;DHT22;11707;50.830;4.364;2022-09-13T12:21:34;24.60;99.90
23079;DHT22;11707;50.830;4.364;2022-09-13T12:24:12;24.90;99.90
23079;DHT22;11707;50.830;4.364;2022-09-13T12:26:47;25.00;99.90
23079;DHT22;11707;50.830;4.364;2022-09-13T12:30:02;25.20;99.90
23079;DHT22;11707;50.830;4.364;2022-09-13T12:32:19;25.00;99.90
23079;DHT22;11707;50.830;4.364;2022-09-13T12:35:03;24.60;99.90
23079;DHT22;11707;50.830;4.364;2022-09-13T12:43:52;24.60;99.90
23079;DHT22;11707;50.830;4.364;2022-09-13T12:49:13;24.60;99.90
23079;DHT22;11707;50.830;4.364;2022-09-13T13:04:55;24.90;99.90
23079;DHT22;11707;50.830;4.364;2022-09-13T13:07:23;25.00;99.90
23079;DHT22;11707;50.830;4.364;2022-09-13T13:09:54;24.80;99.90
23079;DHT22;11707;50.830;4.364;2022-09-13T13:12:35;24.90;99.90
23079;DHT22;11707;50.830;4.364;2022-09-13T13:17:48;24.80;99.90
23079;DHT22;11707;50.830;4.364;2022-09-13T13:20:47;24.80;99.90
23079;DHT22;11707;50.830;4.364;2022-09-13T13:28:49;24.70;99.90
23079;DHT22;11707;50.830;4.364;2022-09-13T13:36:45;24.70;99.90
23079;DHT22;11707;50.830;4.364;2022-09-13T13:46:52;24.10;99.90
23079;DHT22;11707;50.830;4.364;2022-09-13T13:58:00;24.20;99.90
23079;DHT22;11707;50.830;4.364;2022-09-13T14:00:29;24.40;99.90
23079;DHT22;11707;50.830;4.364;2022-09-13T14:03:02;24.60;99.90
23079;DHT22;11707;50.830;4.364;2022-09-13T14:16:24;24.60;99.90
23079;DHT22;11707;50.830;4.364;2022-09-13T14:19:17;24.50;99.90
23079;DHT22;11707;50.830;4.364;2022-09-13T14:21:44;24.40;99.90
23079;DHT22;11707;50.830;4.364;2022-09-13T14:24:17;23.80;99.90
23079;DHT22;11707;50.830;4.364;2022-09-13T14:26:48;23.80;99.90
23079;DHT22;11707;50.830;4.364;2022-09-13T14:29:18;23.80;99.90
23079;DHT22;11707;50.830;4.364;2022-09-13T14:31:48;23.80;99.90
23079;DHT22;11707;50.830;4.364;2022-09-13T14:34:29;23.60;99.90
23079;DHT22;11707;50.830;4.364;2022-09-13T14:37:02;23.50;99.90
23079;DHT22;11707;50.830;4.364;2022-09-13T14:39:28;23.50;99.90
23079;DHT22;11707;50.830;4.364;2022-09-13T14:42:00;23.60;99.90
23079;DHT22;11707;50.830;4.364;2022-09-13T14:44:27;23.60;99.90
23079;DHT22;11707;50.830;4.364;2022-09-13T14:47:20;23.60;99.90
23079;DHT22;11707;50.830;4.364;2022-09-13T14:49:51;23.60;99.90
23079;DHT22;11707;50.830;4.364;2022-09-13T14:52:29;23.50;99.90
23079;DHT22;11707;50.830;4.364;2022-09-13T14:55:00;23.60;99.90
23079;DHT22;11707;50.830;4.364;2022-09-13T14:57:33;23.70;99.90
23079;DHT22;11707;50.830;4.364;2022-09-13T15:00:23;23.80;99.90
23079;DHT22;11707;50.830;4.364;2022-09-13T15:03:03;23.90;99.90
23079;DHT22;11707;50.830;4.364;2022-09-13T15:05:33;23.80;99.90
23079;DHT22;11707;50.830;4.364;2022-09-13T15:08:00;23.80;99.90
23079;DHT22;11707;50.830;4.364;2022-09-13T15:10:45;23.80;99.90
23079;DHT22;11707;50.830;4.364;2022-09-13T15:13:11;23.90;99.90
23079;DHT22;11707;50.830;4.364;2022-09-13T15:15:41;23.90;99.90
23079;DHT22;11707;50.830;4.364;2022-09-13T15:28:29;23.70;99.90
23079;DHT22;11707;50.830;4.364;2022-09-13T15:30:58;23.80;99.90
23079;DHT22;11707;50.830;4.364;2022-09-13T15:35:55;23.90;99.90
23079;DHT22;11707;50.830;4.364;2022-09-13T15:38:36;23.90;99.90
23079;DHT22;11707;50.830;4.364;2022-09-13T15:43:36;24.00;99.90
23079;DHT22;11707;50.830;4.364;2022-09-13T15:46:02;24.00;99.90
23079;DHT22;11707;50.830;4.364;2022-09-13T15:48:31;24.00;99.90
23079;DHT22;11707;50.830;4.364;2022-09-13T15:51:16;23.90;99.90
23079;DHT22;11707;50.830;4.364;2022-09-13T15:53:43;23.80;99.90
23079;DHT22;11707;50.830;4.364;2022-09-13T15:56:22;23.80;99.90
23079;DHT22;11707;50.830;4.364;2022-09-13T15:58:51;23.70;99.90
23079;DHT22;11707;50.830;4.364;2022-09-13T16:01:16;23.40;99.90
23079;DHT22;11707;50.830;4.364;2022-09-13T16:03:43;23.50;99.90
23079;DHT22;11707;50.830;4.364;2022-09-13T16:06:09;23.50;99.90
23079;DHT22;11707;50.830;4.364;2022-09-13T16:08:35;23.30;99.90
23079;DHT22;11707;50.830;4.364;2022-09-13T16:11:01;23.10;99.90
23079;DHT22;11707;50.830;4.364;2022-09-13T16:13:27;22.90;99.90
23079;DHT22;11707;50.830;4.364;2022-09-13T16:15:53;22.90;99.90
23079;DHT22;11707;50.830;4.364;2022-09-13T16:18:22;22.80;99.90
23079;DHT22;11707;50.830;4.364;2022-09-13T16:20:49;22.80;99.90
23079;DHT22;11707;50.830;4.364;2022-09-13T16:23:15;22.90;99.90
23079;DHT22;11707;50.830;4.364;2022-09-13T16:25:41;22.70;99.90
23079;DHT22;11707;50.830;4.364;2022-09-13T16:28:14;22.60;99.90
23079;DHT22;11707;50.830;4.364;2022-09-13T16:30:41;22.60;99.90
23079;DHT22;11707;50.830;4.364;2022-09-13T16:33:07;22.70;99.90
23079;DHT22;11707;50.830;4.364;2022-09-13T16:35:33;22.90;99.90
23079;DHT22;11707;50.830;4.364;2022-09-13T16:37:59;22.80;99.90
23079;DHT22;11707;50.830;4.364;2022-09-13T16:40:25;22.80;99.90
23079;DHT22;11707;50.830;4.364;2022-09-13T16:42:51;22.80;99.90
23079;DHT22;11707;50.830;4.364;2022-09-13T16:45:16;22.70;99.90
23079;DHT22;11707;50.830;4.364;2022-09-13T16:47:43;22.60;99.90
23079;DHT22;11707;50.830;4.364;2022-09-13T16:50:09;22.60;99.90
23079;DHT22;11707;50.830;4.364;2022-09-13T16:52:35;22.40;99.90
23079;DHT22;11707;50.830;4.364;2022-09-13T16:55:01;22.30;99.90
23079;DHT22;11707;50.830;4.364;2022-09-13T16:57:27;22.30;99.90
23079;DHT22;11707;50.830;4.364;2022-09-13T16:59:53;21.90;99.90
23079;DHT22;11707;50.830;4.364;2022-09-13T17:02:21;21.60;99.90
23079;DHT22;11707;50.830;4.364;2022-09-13T17:04:47;21.50;99.90
23079;DHT22;11707;50.830;4.364;2022-09-13T17:07:13;21.30;99.90
23079;DHT22;11707;50.830;4.364;2022-09-13T17:09:40;21.30;99.90
23079;DHT22;11707;50.830;4.364;2022-09-13T17:12:07;21.30;99.90
23079;DHT22;11707;50.830;4.364;2022-09-13T17:14:33;21.30;99.90
23079;DHT22;11707;50.830;4.364;2022-09-13T17:17:00;21.10;99.90
23079;DHT22;11707;50.830;4.364;2022-09-13T17:19:28;20.90;99.90
23079;DHT22;11707;50.830;4.364;2022-09-13T17:21:56;20.80;99.90
23079;DHT22;11707;50.830;4.364;2022-09-13T17:24:23;20.60;99.90
23079;DHT22;11707;50.830;4.364;2022-09-13T17:26:50;20.50;99.90
23079;DHT22;11707;50.830;4.364;2022-09-13T17:29:16;20.50;99.90
23079;DHT22;11707;50.830;4.364;2022-09-13T17:31:42;20.40;99.90
23079;DHT22;11707;50.830;4.364;2022-09-13T17:34:08;20.30;99.90
23079;DHT22;11707;50.830;4.364;2022-09-13T17:36:35;20.20;99.90
23079;DHT22;11707;50.830;4.364;2022-09-13T17:39:01;20.20;99.90
23079;DHT22;11707;50.830;4.364;2022-09-13T17:41:27;20.20;99.90
23079;DHT22;11707;50.830;4.364;2022-09-13T17:43:56;20.10;99.90
23079;DHT22;11707;50.830;4.364;2022-09-13T17:46:24;20.10;99.90
23079;DHT22;11707;50.830;4.364;2022-09-13T17:48:53;20.00;99.90
23079;DHT22;11707;50.830;4.364;2022-09-13T17:51:23;20.10;99.90
23079;DHT22;11707;50.830;4.364;2022-09-13T17:53:54;20.10;99.90
23079;DHT22;11707;50.830;4.364;2022-09-13T17:56:48;20.10;99.90
23079;DHT22;11707;50.830;4.364;2022-09-13T17:59:19;19.90;99.90
23079;DHT22;11707;50.830;4.364;2022-09-13T18:01:51;19.80;99.90
23079;DHT22;11707;50.830;4.364;2022-09-13T18:04:20;19.80;99.90
23079;DHT22;11707;50.830;4.364;2022-09-13T18:06:46;19.80;99.90
23079;DHT22;11707;50.830;4.364;2022-09-13T18:09:13;19.80;99.90
23079;DHT22;11707;50.830;4.364;2022-09-13T18:11:39;19.80;99.90
23079;DHT22;11707;50.830;4.364;2022-09-13T18:14:06;19.80;99.90
23079;DHT22;11707;50.830;4.364;2022-09-13T18:16:36;19.90;99.90
23079;DHT22;11707;50.830;4.364;2022-09-13T18:19:01;19.90;99.90
23079;DHT22;11707;50.830;4.364;2022-09-13T18:21:28;20.00;99.90
23079;DHT22;11707;50.830;4.364;2022-09-13T18:23:56;20.20;99.90
23079;DHT22;11707;50.830;4.364;2022-09-13T18:26:23;20.10;99.90
23079;DHT22;11707;50.830;4.364;2022-09-13T18:28:54;20.10;99.90
23079;DHT22;11707;50.830;4.364;2022-09-13T18:31:21;20.10;99.90
23079;DHT22;11707;50.830;4.364;2022-09-13T18:33:47;20.10;99.90
23079;DHT22;11707;50.830;4.364;2022-09-13T18:36:16;20.10;99.90
23079;DHT22;11707;50.830;4.364;2022-09-13T18:38:44;20.20;99.90
23079;DHT22;11707;50.830;4.364;2022-09-13T18:41:13;20.30;99.90
23079;DHT22;11707;50.830;4.364;2022-09-13T18:43:41;20.10;99.90
23079;DHT22;11707;50.830;4.364;2022-09-13T18:46:18;20.30;99.90
23079;DHT22;11707;50.830;4.364;2022-09-13T18:48:46;20.40;99.90
23079;DHT22;11707;50.830;4.364;2022-09-13T18:51:18;20.50;99.90
23079;DHT22;11707;50.830;4.364;2022-09-13T18:53:44;20.70;99.90
23079;DHT22;11707;50.830;4.364;2022-09-13T18:56:13;20.70;99.90
23079;DHT22;11707;50.830;4.364;2022-09-13T18:58:40;20.70;99.90
23079;DHT22;11707;50.830;4.364;2022-09-13T19:01:07;20.70;99.90
23079;DHT22;11707;50.830;4.364;2022-09-13T19:03:34;20.60;99.90
23079;DHT22;11707;50.830;4.364;2022-09-13T19:06:18;20.60;99.90
23079;DHT22;11707;50.830;4.364;2022-09-13T19:08:44;20.60;99.90
23079;DHT22;11707;50.830;4.364;2022-09-13T19:11:12;20.50;99.90
23079;DHT22;11707;50.830;4.364;2022-09-13T19:13:38;20.30;99.90
23079;DHT22;11707;50.830;4.364;2022-09-13T19:16:07;20.20;99.90
23079;DHT22;11707;50.830;4.364;2022-09-13T19:18:38;20.10;99.90
23079;DHT22;11707;50.830;4.364;2022-09-13T19:21:14;20.00;99.90
23079;DHT22;11707;50.830;4.364;2022-09-13T19:23:42;19.90;99.90
23079;DHT22;11707;50.830;4.364;2022-09-13T19:28:35;19.90;99.90
23079;DHT22;11707;50.830;4.364;2022-09-13T19:31:04;19.80;99.90